Hauptseite
METAR-TAF:

METAR-TAF

Flughäfen :

Bohrplattform

Hoorn-a, Niederlande

Breite: 52-55-05N, Länge: 4-09-01E, Höhe: 41 m

Beobachtung

Neuester Wetterbericht von vor 38 Minuten, um 12:25 UTC
Wind 16 kt aus Nord
Temperatur 12°C
Luftfeuchtigkeit 58%
Luftdruck 1034 hPa
Sichtweite 10 km oder mehr
Aufgelockert bewölkt in der Höhe von 3500 ft
Durchbrochene Bewölkung in der Höhe von 4000 ft

METAR: EHQE 221225Z AUTO 35016KT 9999 SCT035 BKN040 12/04 Q1034 W///H///

Zeit: 15:03 (13:03 UTC)


TAF: fehlend

Wetterbeobachtungen und Prognosen von mehr als 4000 Flughäfen (METAR und TAF Bericht).

Die verfügbaren Stationen werden durch gelbe und rote Markierungen auf der Karte dargestellt.

Führen Sie die Maus auf sie, um den Namen der Station zu sehen.

Darauf klicken, um die Beobachtung von Wetterbeobachtungen und Prognosen zu sehen.

Um die Karte zu ändern : klicken Sie auf den grünen Tasten mit einem schwarzen Kreuz Zum Vergrößern, auf den grünen Button mit einem Gedankenstrich zu verkleinern, oder auf die grünen Pfeile für benachbarte Karten.


METAR-TAF: